sensor_id;sensor_type;location;lat;lon;timestamp;P1;durP1;ratioP1;P2;durP2;ratioP2
15159;SDS011;7680;48.800;9.680;2023-03-14T00:02:11;3.33;;;2.77;;
15159;SDS011;7680;48.800;9.680;2023-03-14T00:04:46;3.13;;;2.87;;
15159;SDS011;7680;48.800;9.680;2023-03-14T00:07:19;2.87;;;2.67;;
15159;SDS011;7680;48.800;9.680;2023-03-14T00:09:52;3.10;;;2.80;;
15159;SDS011;7680;48.800;9.680;2023-03-14T00:12:25;2.73;;;2.63;;
15159;SDS011;7680;48.800;9.680;2023-03-14T00:14:59;2.60;;;2.40;;
15159;SDS011;7680;48.800;9.680;2023-03-14T00:17:34;2.10;;;2.00;;
15159;SDS011;7680;48.800;9.680;2023-03-14T00:20:10;2.00;;;1.90;;
15159;SDS011;7680;48.800;9.680;2023-03-14T00:22:44;2.20;;;2.00;;
15159;SDS011;7680;48.800;9.680;2023-03-14T00:25:17;2.23;;;2.10;;
15159;SDS011;7680;48.800;9.680;2023-03-14T00:27:51;1.90;;;1.80;;
15159;SDS011;7680;48.800;9.680;2023-03-14T00:30:24;1.83;;;1.73;;
15159;SDS011;7680;48.800;9.680;2023-03-14T00:32:57;1.80;;;1.70;;
15159;SDS011;7680;48.800;9.680;2023-03-14T00:35:31;2.07;;;1.87;;
15159;SDS011;7680;48.800;9.680;2023-03-14T00:38:04;3.00;;;2.50;;
15159;SDS011;7680;48.800;9.680;2023-03-14T00:40:38;1.97;;;1.80;;
15159;SDS011;7680;48.800;9.680;2023-03-14T00:43:11;1.87;;;1.77;;
15159;SDS011;7680;48.800;9.680;2023-03-14T00:45:44;1.55;;;1.48;;
15159;SDS011;7680;48.800;9.680;2023-03-14T00:48:18;2.00;;;1.80;;
15159;SDS011;7680;48.800;9.680;2023-03-14T00:50:53;1.42;;;1.33;;
15159;SDS011;7680;48.800;9.680;2023-03-14T00:53:26;1.50;;;1.50;;
15159;SDS011;7680;48.800;9.680;2023-03-14T00:56:01;1.70;;;1.60;;
15159;SDS011;7680;48.800;9.680;2023-03-14T00:58:35;1.83;;;1.73;;
15159;SDS011;7680;48.800;9.680;2023-03-14T01:01:09;1.60;;;1.50;;
15159;SDS011;7680;48.800;9.680;2023-03-14T01:03:45;5.40;;;3.37;;
15159;SDS011;7680;48.800;9.680;2023-03-14T01:06:21;1.92;;;1.83;;
15159;SDS011;7680;48.800;9.680;2023-03-14T01:08:56;3.00;;;2.47;;
15159;SDS011;7680;48.800;9.680;2023-03-14T01:11:31;1.80;;;1.70;;
15159;SDS011;7680;48.800;9.680;2023-03-14T01:14:06;2.03;;;1.93;;
15159;SDS011;7680;48.800;9.680;2023-03-14T01:16:39;2.13;;;2.03;;
15159;SDS011;7680;48.800;9.680;2023-03-14T01:19:12;2.40;;;2.20;;
15159;SDS011;7680;48.800;9.680;2023-03-14T01:21:47;1.70;;;1.60;;
15159;SDS011;7680;48.800;9.680;2023-03-14T01:24:20;2.20;;;2.00;;
15159;SDS011;7680;48.800;9.680;2023-03-14T01:26:53;1.97;;;1.83;;
15159;SDS011;7680;48.800;9.680;2023-03-14T01:29:26;1.67;;;1.58;;
15159;SDS011;7680;48.800;9.680;2023-03-14T01:31:59;2.00;;;1.90;;
15159;SDS011;7680;48.800;9.680;2023-03-14T01:34:32;1.90;;;1.80;;
15159;SDS011;7680;48.800;9.680;2023-03-14T01:37:06;1.60;;;1.50;;
15159;SDS011;7680;48.800;9.680;2023-03-14T01:39:39;1.50;;;1.40;;
15159;SDS011;7680;48.800;9.680;2023-03-14T01:42:12;1.40;;;1.40;;
15159;SDS011;7680;48.800;9.680;2023-03-14T01:44:46;1.60;;;1.50;;
15159;SDS011;7680;48.800;9.680;2023-03-14T01:47:24;1.58;;;1.58;;
15159;SDS011;7680;48.800;9.680;2023-03-14T01:49:59;1.42;;;1.42;;
15159;SDS011;7680;48.800;9.680;2023-03-14T01:52:38;1.57;;;1.47;;
15159;SDS011;7680;48.800;9.680;2023-03-14T01:55:17;1.48;;;1.48;;
15159;SDS011;7680;48.800;9.680;2023-03-14T01:57:55;1.58;;;1.58;;
15159;SDS011;7680;48.800;9.680;2023-03-14T02:00:32;1.67;;;1.67;;
15159;SDS011;7680;48.800;9.680;2023-03-14T02:03:06;1.40;;;1.40;;
15159;SDS011;7680;48.800;9.680;2023-03-14T02:05:46;1.80;;;1.70;;
15159;SDS011;7680;48.800;9.680;2023-03-14T02:08:22;1.50;;;1.40;;
15159;SDS011;7680;48.800;9.680;2023-03-14T02:10:56;1.45;;;1.45;;
15159;SDS011;7680;48.800;9.680;2023-03-14T02:13:29;1.50;;;1.40;;
15159;SDS011;7680;48.800;9.680;2023-03-14T02:16:02;1.35;;;1.27;;
15159;SDS011;7680;48.800;9.680;2023-03-14T02:18:36;1.43;;;1.43;;
15159;SDS011;7680;48.800;9.680;2023-03-14T02:21:12;1.80;;;1.55;;
15159;SDS011;7680;48.800;9.680;2023-03-14T02:23:53;1.50;;;1.40;;
15159;SDS011;7680;48.800;9.680;2023-03-14T02:26:40;1.60;;;1.48;;
15159;SDS011;7680;48.800;9.680;2023-03-14T02:29:33;1.40;;;1.40;;
15159;SDS011;7680;48.800;9.680;2023-03-14T02:32:11;1.60;;;1.50;;
15159;SDS011;7680;48.800;9.680;2023-03-14T02:34:47;1.80;;;1.70;;
15159;SDS011;7680;48.800;9.680;2023-03-14T02:37:27;1.40;;;1.40;;
15159;SDS011;7680;48.800;9.680;2023-03-14T02:40:06;1.05;;;1.05;;
15159;SDS011;7680;48.800;9.680;2023-03-14T02:42:42;1.50;;;1.50;;
15159;SDS011;7680;48.800;9.680;2023-03-14T02:48:15;1.40;;;1.40;;
15159;SDS011;7680;48.800;9.680;2023-03-14T02:50:52;1.30;;;1.30;;
15159;SDS011;7680;48.800;9.680;2023-03-14T02:53:29;1.40;;;1.40;;
15159;SDS011;7680;48.800;9.680;2023-03-14T02:56:04;1.67;;;1.67;;
15159;SDS011;7680;48.800;9.680;2023-03-14T02:58:40;1.15;;;1.15;;
15159;SDS011;7680;48.800;9.680;2023-03-14T03:01:13;1.53;;;1.43;;
15159;SDS011;7680;48.800;9.680;2023-03-14T03:03:47;1.43;;;1.33;;
15159;SDS011;7680;48.800;9.680;2023-03-14T03:06:20;1.30;;;1.30;;
15159;SDS011;7680;48.800;9.680;2023-03-14T03:08:53;1.27;;;1.20;;
15159;SDS011;7680;48.800;9.680;2023-03-14T03:11:26;1.60;;;1.50;;
15159;SDS011;7680;48.800;9.680;2023-03-14T03:14:00;1.38;;;1.27;;
15159;SDS011;7680;48.800;9.680;2023-03-14T03:16:34;1.47;;;1.37;;
15159;SDS011;7680;48.800;9.680;2023-03-14T03:19:07;1.67;;;1.58;;
15159;SDS011;7680;48.800;9.680;2023-03-14T03:21:40;1.60;;;1.50;;
15159;SDS011;7680;48.800;9.680;2023-03-14T03:24:13;1.57;;;1.47;;
15159;SDS011;7680;48.800;9.680;2023-03-14T03:26:46;1.50;;;1.40;;
15159;SDS011;7680;48.800;9.680;2023-03-14T03:29:20;1.20;;;1.20;;
15159;SDS011;7680;48.800;9.680;2023-03-14T03:31:54;1.90;;;1.80;;
15159;SDS011;7680;48.800;9.680;2023-03-14T03:34:27;2.03;;;1.50;;
15159;SDS011;7680;48.800;9.680;2023-03-14T03:37:00;1.47;;;1.47;;
15159;SDS011;7680;48.800;9.680;2023-03-14T03:39:33;1.60;;;1.50;;
15159;SDS011;7680;48.800;9.680;2023-03-14T03:42:06;1.70;;;1.60;;
15159;SDS011;7680;48.800;9.680;2023-03-14T03:44:41;1.90;;;1.80;;
15159;SDS011;7680;48.800;9.680;2023-03-14T03:47:14;1.77;;;1.40;;
15159;SDS011;7680;48.800;9.680;2023-03-14T03:49:47;1.70;;;1.70;;
15159;SDS011;7680;48.800;9.680;2023-03-14T03:52:20;1.40;;;1.40;;
15159;SDS011;7680;48.800;9.680;2023-03-14T03:54:53;1.77;;;1.70;;
15159;SDS011;7680;48.800;9.680;2023-03-14T03:57:27;1.70;;;1.60;;
15159;SDS011;7680;48.800;9.680;2023-03-14T04:00:01;1.70;;;1.60;;
15159;SDS011;7680;48.800;9.680;2023-03-14T04:02:36;1.67;;;1.58;;
15159;SDS011;7680;48.800;9.680;2023-03-14T04:05:09;2.00;;;1.90;;
15159;SDS011;7680;48.800;9.680;2023-03-14T04:07:42;2.17;;;2.07;;
15159;SDS011;7680;48.800;9.680;2023-03-14T04:10:15;2.07;;;1.97;;
15159;SDS011;7680;48.800;9.680;2023-03-14T04:12:49;1.83;;;1.70;;
15159;SDS011;7680;48.800;9.680;2023-03-14T04:15:23;1.90;;;1.80;;
15159;SDS011;7680;48.800;9.680;2023-03-14T04:17:56;1.90;;;1.80;;
15159;SDS011;7680;48.800;9.680;2023-03-14T04:20:30;2.00;;;1.90;;
15159;SDS011;7680;48.800;9.680;2023-03-14T04:23:06;1.93;;;1.83;;
15159;SDS011;7680;48.800;9.680;2023-03-14T04:25:39;2.40;;;2.20;;
15159;SDS011;7680;48.800;9.680;2023-03-14T04:28:12;1.70;;;1.60;;
15159;SDS011;7680;48.800;9.680;2023-03-14T04:30:47;3.30;;;2.37;;
15159;SDS011;7680;48.800;9.680;2023-03-14T04:33:20;2.13;;;1.90;;
15159;SDS011;7680;48.800;9.680;2023-03-14T04:35:53;2.23;;;2.10;;
15159;SDS011;7680;48.800;9.680;2023-03-14T04:38:26;1.80;;;1.80;;
15159;SDS011;7680;48.800;9.680;2023-03-14T04:41:00;1.93;;;1.60;;
15159;SDS011;7680;48.800;9.680;2023-03-14T04:43:33;1.90;;;1.80;;
15159;SDS011;7680;48.800;9.680;2023-03-14T04:46:07;2.30;;;1.80;;
15159;SDS011;7680;48.800;9.680;2023-03-14T04:48:40;2.20;;;2.00;;
15159;SDS011;7680;48.800;9.680;2023-03-14T04:51:14;1.90;;;1.80;;
15159;SDS011;7680;48.800;9.680;2023-03-14T04:53:47;2.00;;;1.90;;
15159;SDS011;7680;48.800;9.680;2023-03-14T04:56:20;1.80;;;1.70;;
15159;SDS011;7680;48.800;9.680;2023-03-14T04:58:53;2.10;;;1.90;;
15159;SDS011;7680;48.800;9.680;2023-03-14T05:01:27;2.10;;;1.90;;
15159;SDS011;7680;48.800;9.680;2023-03-14T05:04:01;3.00;;;1.87;;
15159;SDS011;7680;48.800;9.680;2023-03-14T05:06:34;2.33;;;1.77;;
15159;SDS011;7680;48.800;9.680;2023-03-14T05:09:07;1.90;;;1.80;;
15159;SDS011;7680;48.800;9.680;2023-03-14T05:11:40;1.80;;;1.70;;
15159;SDS011;7680;48.800;9.680;2023-03-14T05:14:13;1.90;;;1.80;;
15159;SDS011;7680;48.800;9.680;2023-03-14T05:16:47;1.90;;;1.80;;
15159;SDS011;7680;48.800;9.680;2023-03-14T05:19:20;1.87;;;1.77;;
15159;SDS011;7680;48.800;9.680;2023-03-14T05:21:53;3.10;;;1.90;;
15159;SDS011;7680;48.800;9.680;2023-03-14T05:24:27;1.90;;;1.63;;
15159;SDS011;7680;48.800;9.680;2023-03-14T05:27:00;1.93;;;1.83;;
15159;SDS011;7680;48.800;9.680;2023-03-14T05:29:33;2.07;;;1.87;;
15159;SDS011;7680;48.800;9.680;2023-03-14T05:32:07;2.73;;;2.07;;
15159;SDS011;7680;48.800;9.680;2023-03-14T05:34:40;2.13;;;2.00;;
15159;SDS011;7680;48.800;9.680;2023-03-14T05:37:13;2.43;;;2.23;;
15159;SDS011;7680;48.800;9.680;2023-03-14T05:39:49;3.37;;;1.87;;
15159;SDS011;7680;48.800;9.680;2023-03-14T05:42:22;2.93;;;2.70;;
15159;SDS011;7680;48.800;9.680;2023-03-14T05:44:55;4.43;;;3.30;;
15159;SDS011;7680;48.800;9.680;2023-03-14T05:47:30;4.37;;;3.87;;
15159;SDS011;7680;48.800;9.680;2023-03-14T05:50:03;4.00;;;3.30;;
15159;SDS011;7680;48.800;9.680;2023-03-14T05:52:37;2.93;;;2.73;;
15159;SDS011;7680;48.800;9.680;2023-03-14T05:55:10;2.70;;;2.50;;
15159;SDS011;7680;48.800;9.680;2023-03-14T05:57:43;2.77;;;2.43;;
15159;SDS011;7680;48.800;9.680;2023-03-14T06:00:17;3.53;;;3.23;;
15159;SDS011;7680;48.800;9.680;2023-03-14T06:02:52;3.57;;;2.90;;
15159;SDS011;7680;48.800;9.680;2023-03-14T06:05:25;3.27;;;3.00;;
15159;SDS011;7680;48.800;9.680;2023-03-14T06:07:58;7.63;;;5.17;;
15159;SDS011;7680;48.800;9.680;2023-03-14T06:10:31;7.73;;;4.70;;
15159;SDS011;7680;48.800;9.680;2023-03-14T06:13:04;7.53;;;4.90;;
15159;SDS011;7680;48.800;9.680;2023-03-14T06:15:38;7.20;;;4.07;;
15159;SDS011;7680;48.800;9.680;2023-03-14T06:18:12;4.93;;;4.00;;
15159;SDS011;7680;48.800;9.680;2023-03-14T06:20:46;3.00;;;2.17;;
15159;SDS011;7680;48.800;9.680;2023-03-14T06:23:19;3.17;;;2.23;;
15159;SDS011;7680;48.800;9.680;2023-03-14T06:25:52;3.37;;;2.40;;
15159;SDS011;7680;48.800;9.680;2023-03-14T06:28:25;4.57;;;2.70;;
15159;SDS011;7680;48.800;9.680;2023-03-14T06:30:58;4.17;;;2.40;;
15159;SDS011;7680;48.800;9.680;2023-03-14T06:33:33;2.70;;;2.50;;
15159;SDS011;7680;48.800;9.680;2023-03-14T06:36:06;2.37;;;2.17;;
15159;SDS011;7680;48.800;9.680;2023-03-14T06:38:40;4.13;;;2.10;;
15159;SDS011;7680;48.800;9.680;2023-03-14T06:41:14;4.17;;;2.30;;
15159;SDS011;7680;48.800;9.680;2023-03-14T06:43:47;3.97;;;2.30;;
15159;SDS011;7680;48.800;9.680;2023-03-14T06:46:20;3.70;;;2.40;;
15159;SDS011;7680;48.800;9.680;2023-03-14T06:48:54;4.10;;;2.33;;
15159;SDS011;7680;48.800;9.680;2023-03-14T06:51:27;2.67;;;2.27;;
15159;SDS011;7680;48.800;9.680;2023-03-14T06:54:01;4.20;;;2.27;;
15159;SDS011;7680;48.800;9.680;2023-03-14T06:56:34;5.83;;;3.00;;
15159;SDS011;7680;48.800;9.680;2023-03-14T06:59:07;3.43;;;2.60;;
15159;SDS011;7680;48.800;9.680;2023-03-14T07:01:40;3.30;;;2.47;;
15159;SDS011;7680;48.800;9.680;2023-03-14T07:04:14;5.27;;;2.60;;
15159;SDS011;7680;48.800;9.680;2023-03-14T07:06:48;6.23;;;3.07;;
15159;SDS011;7680;48.800;9.680;2023-03-14T07:09:21;4.60;;;2.97;;
15159;SDS011;7680;48.800;9.680;2023-03-14T07:11:54;4.30;;;3.20;;
15159;SDS011;7680;48.800;9.680;2023-03-14T07:14:27;2.97;;;2.63;;
15159;SDS011;7680;48.800;9.680;2023-03-14T07:17:01;5.50;;;3.40;;
15159;SDS011;7680;48.800;9.680;2023-03-14T07:19:35;5.70;;;3.40;;
15159;SDS011;7680;48.800;9.680;2023-03-14T07:22:09;5.43;;;3.60;;
15159;SDS011;7680;48.800;9.680;2023-03-14T07:24:42;7.30;;;3.40;;
15159;SDS011;7680;48.800;9.680;2023-03-14T07:27:15;3.08;;;2.53;;
15159;SDS011;7680;48.800;9.680;2023-03-14T07:29:48;3.00;;;2.70;;
15159;SDS011;7680;48.800;9.680;2023-03-14T07:32:21;2.40;;;2.22;;
15159;SDS011;7680;48.800;9.680;2023-03-14T07:34:55;2.42;;;2.13;;
15159;SDS011;7680;48.800;9.680;2023-03-14T07:37:28;4.00;;;2.20;;
15159;SDS011;7680;48.800;9.680;2023-03-14T07:40:01;3.25;;;2.30;;
15159;SDS011;7680;48.800;9.680;2023-03-14T07:42:38;3.03;;;2.15;;
15159;SDS011;7680;48.800;9.680;2023-03-14T07:45:11;2.35;;;2.00;;
15159;SDS011;7680;48.800;9.680;2023-03-14T07:47:44;2.28;;;2.00;;
15159;SDS011;7680;48.800;9.680;2023-03-14T07:50:19;2.97;;;2.00;;
15159;SDS011;7680;48.800;9.680;2023-03-14T07:52:53;3.47;;;1.77;;
15159;SDS011;7680;48.800;9.680;2023-03-14T07:55:26;2.75;;;1.90;;
15159;SDS011;7680;48.800;9.680;2023-03-14T07:57:59;2.22;;;1.63;;
15159;SDS011;7680;48.800;9.680;2023-03-14T08:00:32;2.38;;;1.65;;
15159;SDS011;7680;48.800;9.680;2023-03-14T08:03:06;3.08;;;1.40;;
15159;SDS011;7680;48.800;9.680;2023-03-14T08:05:40;1.58;;;1.45;;
15159;SDS011;7680;48.800;9.680;2023-03-14T08:08:13;2.33;;;1.40;;
15159;SDS011;7680;48.800;9.680;2023-03-14T08:10:46;1.52;;;1.40;;
15159;SDS011;7680;48.800;9.680;2023-03-14T08:13:19;1.83;;;1.52;;
15159;SDS011;7680;48.800;9.680;2023-03-14T08:15:54;1.65;;;1.23;;
15159;SDS011;7680;48.800;9.680;2023-03-14T08:18:27;1.25;;;1.20;;
15159;SDS011;7680;48.800;9.680;2023-03-14T08:21:02;2.05;;;1.38;;
15159;SDS011;7680;48.800;9.680;2023-03-14T08:23:35;1.40;;;1.30;;
15159;SDS011;7680;48.800;9.680;2023-03-14T08:26:09;2.03;;;1.52;;
15159;SDS011;7680;48.800;9.680;2023-03-14T08:28:42;1.88;;;1.23;;
15159;SDS011;7680;48.800;9.680;2023-03-14T08:31:15;1.50;;;1.40;;
15159;SDS011;7680;48.800;9.680;2023-03-14T08:33:48;2.13;;;1.50;;
15159;SDS011;7680;48.800;9.680;2023-03-14T08:36:24;1.48;;;1.38;;
15159;SDS011;7680;48.800;9.680;2023-03-14T08:38:58;1.50;;;1.40;;
15159;SDS011;7680;48.800;9.680;2023-03-14T08:41:31;1.63;;;1.42;;
15159;SDS011;7680;48.800;9.680;2023-03-14T08:44:04;1.25;;;1.17;;
15159;SDS011;7680;48.800;9.680;2023-03-14T08:46:37;1.50;;;1.40;;
15159;SDS011;7680;48.800;9.680;2023-03-14T08:49:10;1.98;;;1.33;;
15159;SDS011;7680;48.800;9.680;2023-03-14T08:51:47;2.38;;;1.58;;
15159;SDS011;7680;48.800;9.680;2023-03-14T08:54:20;1.52;;;1.30;;
15159;SDS011;7680;48.800;9.680;2023-03-14T08:56:53;1.88;;;1.40;;
15159;SDS011;7680;48.800;9.680;2023-03-14T08:59:26;1.70;;;1.38;;
15159;SDS011;7680;48.800;9.680;2023-03-14T09:01:59;1.75;;;1.65;;
15159;SDS011;7680;48.800;9.680;2023-03-14T09:04:34;1.50;;;1.40;;
15159;SDS011;7680;48.800;9.680;2023-03-14T09:07:09;1.55;;;1.45;;
15159;SDS011;7680;48.800;9.680;2023-03-14T09:09:42;1.98;;;1.25;;
15159;SDS011;7680;48.800;9.680;2023-03-14T09:12:15;2.33;;;1.40;;
15159;SDS011;7680;48.800;9.680;2023-03-14T09:14:48;1.58;;;1.48;;
15159;SDS011;7680;48.800;9.680;2023-03-14T09:17:21;1.70;;;1.35;;
15159;SDS011;7680;48.800;9.680;2023-03-14T09:19:54;1.60;;;1.20;;
15159;SDS011;7680;48.800;9.680;2023-03-14T09:22:32;1.55;;;1.02;;
15159;SDS011;7680;48.800;9.680;2023-03-14T09:25:07;1.42;;;1.33;;
15159;SDS011;7680;48.800;9.680;2023-03-14T09:27:40;2.35;;;1.30;;
15159;SDS011;7680;48.800;9.680;2023-03-14T09:30:14;2.00;;;1.17;;
15159;SDS011;7680;48.800;9.680;2023-03-14T09:32:47;1.08;;;0.98;;
15159;SDS011;7680;48.800;9.680;2023-03-14T09:35:20;1.30;;;1.20;;
15159;SDS011;7680;48.800;9.680;2023-03-14T09:37:54;2.30;;;1.25;;
15159;SDS011;7680;48.800;9.680;2023-03-14T09:40:30;2.17;;;1.13;;
15159;SDS011;7680;48.800;9.680;2023-03-14T09:43:08;1.02;;;1.02;;
15159;SDS011;7680;48.800;9.680;2023-03-14T09:45:44;1.20;;;1.10;;
15159;SDS011;7680;48.800;9.680;2023-03-14T09:48:21;1.33;;;1.10;;
15159;SDS011;7680;48.800;9.680;2023-03-14T09:50:59;1.20;;;1.10;;
15159;SDS011;7680;48.800;9.680;2023-03-14T09:53:39;1.63;;;1.00;;
15159;SDS011;7680;48.800;9.680;2023-03-14T09:56:16;1.38;;;1.05;;
15159;SDS011;7680;48.800;9.680;2023-03-14T09:58:53;1.17;;;1.10;;
15159;SDS011;7680;48.800;9.680;2023-03-14T10:01:30;1.27;;;0.82;;
15159;SDS011;7680;48.800;9.680;2023-03-14T10:04:09;1.38;;;1.10;;
15159;SDS011;7680;48.800;9.680;2023-03-14T10:06:48;1.17;;;0.70;;
15159;SDS011;7680;48.800;9.680;2023-03-14T10:09:22;1.00;;;0.90;;
15159;SDS011;7680;48.800;9.680;2023-03-14T10:11:57;1.35;;;1.00;;
15159;SDS011;7680;48.800;9.680;2023-03-14T10:14:32;0.98;;;0.98;;
15159;SDS011;7680;48.800;9.680;2023-03-14T10:17:08;1.08;;;0.93;;
15159;SDS011;7680;48.800;9.680;2023-03-14T10:19:53;0.90;;;0.90;;
15159;SDS011;7680;48.800;9.680;2023-03-14T10:22:28;0.90;;;0.90;;
15159;SDS011;7680;48.800;9.680;2023-03-14T10:25:05;1.20;;;1.10;;
15159;SDS011;7680;48.800;9.680;2023-03-14T10:27:58;1.00;;;1.00;;
15159;SDS011;7680;48.800;9.680;2023-03-14T10:30:38;1.20;;;1.10;;
15159;SDS011;7680;48.800;9.680;2023-03-14T10:33:19;0.90;;;0.90;;
15159;SDS011;7680;48.800;9.680;2023-03-14T10:35:55;1.25;;;0.90;;
15159;SDS011;7680;48.800;9.680;2023-03-14T10:38:31;1.00;;;1.00;;
15159;SDS011;7680;48.800;9.680;2023-03-14T10:41:15;1.08;;;0.90;;
15159;SDS011;7680;48.800;9.680;2023-03-14T10:43:51;0.90;;;0.90;;
15159;SDS011;7680;48.800;9.680;2023-03-14T10:46:30;1.13;;;0.82;;
15159;SDS011;7680;48.800;9.680;2023-03-14T10:49:05;1.15;;;1.05;;
15159;SDS011;7680;48.800;9.680;2023-03-14T10:51:39;0.95;;;0.90;;
15159;SDS011;7680;48.800;9.680;2023-03-14T10:54:13;1.15;;;1.00;;
15159;SDS011;7680;48.800;9.680;2023-03-14T10:56:59;1.33;;;1.23;;
15159;SDS011;7680;48.800;9.680;2023-03-14T10:59:34;0.95;;;0.95;;
15159;SDS011;7680;48.800;9.680;2023-03-14T11:02:28;1.20;;;1.20;;
15159;SDS011;7680;48.800;9.680;2023-03-14T11:05:20;1.33;;;1.10;;
15159;SDS011;7680;48.800;9.680;2023-03-14T11:08:02;1.02;;;1.00;;
15159;SDS011;7680;48.800;9.680;2023-03-14T11:10:41;1.15;;;1.13;;
15159;SDS011;7680;48.800;9.680;2023-03-14T11:13:21;0.93;;;0.93;;
15159;SDS011;7680;48.800;9.680;2023-03-14T11:16:01;1.45;;;1.10;;
15159;SDS011;7680;48.800;9.680;2023-03-14T11:18:49;1.10;;;1.00;;
15159;SDS011;7680;48.800;9.680;2023-03-14T11:21:35;1.00;;;1.00;;
15159;SDS011;7680;48.800;9.680;2023-03-14T11:24:19;1.17;;;1.17;;
15159;SDS011;7680;48.800;9.680;2023-03-14T11:27:18;1.40;;;1.30;;
15159;SDS011;7680;48.800;9.680;2023-03-14T11:29:58;1.00;;;1.00;;
15159;SDS011;7680;48.800;9.680;2023-03-14T11:32:40;1.25;;;1.17;;
15159;SDS011;7680;48.800;9.680;2023-03-14T11:35:19;0.90;;;0.90;;
15159;SDS011;7680;48.800;9.680;2023-03-14T11:38:00;1.23;;;1.23;;
15159;SDS011;7680;48.800;9.680;2023-03-14T11:40:45;1.27;;;1.08;;
15159;SDS011;7680;48.800;9.680;2023-03-14T11:43:23;1.48;;;1.20;;
15159;SDS011;7680;48.800;9.680;2023-03-14T11:46:05;1.90;;;1.40;;
15159;SDS011;7680;48.800;9.680;2023-03-14T11:48:44;2.10;;;1.30;;
15159;SDS011;7680;48.800;9.680;2023-03-14T11:51:27;1.20;;;1.20;;
15159;SDS011;7680;48.800;9.680;2023-03-14T11:54:08;1.27;;;1.10;;
15159;SDS011;7680;48.800;9.680;2023-03-14T11:56:50;1.10;;;1.10;;
15159;SDS011;7680;48.800;9.680;2023-03-14T11:59:27;1.05;;;1.05;;
15159;SDS011;7680;48.800;9.680;2023-03-14T12:02:09;1.63;;;1.50;;
15159;SDS011;7680;48.800;9.680;2023-03-14T12:04:55;1.20;;;1.20;;
15159;SDS011;7680;48.800;9.680;2023-03-14T12:11:12;1.50;;;1.35;;
15159;SDS011;7680;48.800;9.680;2023-03-14T12:13:52;1.20;;;1.10;;
15159;SDS011;7680;48.800;9.680;2023-03-14T12:16:27;1.40;;;1.30;;
15159;SDS011;7680;48.800;9.680;2023-03-14T12:19:26;1.40;;;1.27;;
15159;SDS011;7680;48.800;9.680;2023-03-14T12:22:08;1.58;;;1.58;;
15159;SDS011;7680;48.800;9.680;2023-03-14T12:25:05;1.70;;;1.60;;
15159;SDS011;7680;48.800;9.680;2023-03-14T12:28:03;1.60;;;1.50;;
15159;SDS011;7680;48.800;9.680;2023-03-14T12:30:49;2.20;;;1.70;;
15159;SDS011;7680;48.800;9.680;2023-03-14T12:33:29;1.58;;;1.48;;
15159;SDS011;7680;48.800;9.680;2023-03-14T12:36:10;1.58;;;1.58;;
15159;SDS011;7680;48.800;9.680;2023-03-14T12:39:19;1.65;;;1.58;;
15159;SDS011;7680;48.800;9.680;2023-03-14T12:42:01;1.50;;;1.45;;
15159;SDS011;7680;48.800;9.680;2023-03-14T12:44:39;1.20;;;1.20;;
15159;SDS011;7680;48.800;9.680;2023-03-14T12:50:53;1.40;;;1.30;;
15159;SDS011;7680;48.800;9.680;2023-03-14T12:53:38;1.55;;;1.45;;
15159;SDS011;7680;48.800;9.680;2023-03-14T12:56:36;1.70;;;1.60;;
15159;SDS011;7680;48.800;9.680;2023-03-14T12:59:38;1.70;;;1.60;;
15159;SDS011;7680;48.800;9.680;2023-03-14T13:02:23;1.58;;;1.30;;
15159;SDS011;7680;48.800;9.680;2023-03-14T13:05:00;1.40;;;1.40;;
15159;SDS011;7680;48.800;9.680;2023-03-14T13:10:39;1.90;;;1.80;;
15159;SDS011;7680;48.800;9.680;2023-03-14T13:13:20;1.52;;;1.42;;
15159;SDS011;7680;48.800;9.680;2023-03-14T13:15:57;1.63;;;1.52;;
15159;SDS011;7680;48.800;9.680;2023-03-14T13:18:35;1.75;;;1.70;;
15159;SDS011;7680;48.800;9.680;2023-03-14T13:21:11;2.05;;;1.95;;
15159;SDS011;7680;48.800;9.680;2023-03-14T13:23:55;2.50;;;2.30;;
15159;SDS011;7680;48.800;9.680;2023-03-14T13:26:34;1.85;;;1.65;;
15159;SDS011;7680;48.800;9.680;2023-03-14T13:29:09;1.88;;;1.77;;
15159;SDS011;7680;48.800;9.680;2023-03-14T13:31:49;3.05;;;2.30;;
15159;SDS011;7680;48.800;9.680;2023-03-14T13:34:25;3.03;;;1.85;;
15159;SDS011;7680;48.800;9.680;2023-03-14T13:36:59;2.17;;;1.95;;
15159;SDS011;7680;48.800;9.680;2023-03-14T13:39:33;2.38;;;2.25;;
15159;SDS011;7680;48.800;9.680;2023-03-14T13:42:13;3.80;;;2.75;;
15159;SDS011;7680;48.800;9.680;2023-03-14T13:44:48;2.38;;;2.17;;
15159;SDS011;7680;48.800;9.680;2023-03-14T13:47:24;2.30;;;2.10;;
15159;SDS011;7680;48.800;9.680;2023-03-14T13:49:58;2.42;;;2.22;;
15159;SDS011;7680;48.800;9.680;2023-03-14T13:52:34;2.53;;;2.28;;
15159;SDS011;7680;48.800;9.680;2023-03-14T13:55:13;2.60;;;2.40;;
15159;SDS011;7680;48.800;9.680;2023-03-14T13:57:51;2.00;;;1.50;;
15159;SDS011;7680;48.800;9.680;2023-03-14T14:00:27;1.85;;;1.60;;
15159;SDS011;7680;48.800;9.680;2023-03-14T14:03:01;1.80;;;1.40;;
15159;SDS011;7680;48.800;9.680;2023-03-14T14:05:34;1.80;;;1.70;;
15159;SDS011;7680;48.800;9.680;2023-03-14T14:08:11;2.72;;;1.80;;
15159;SDS011;7680;48.800;9.680;2023-03-14T14:10:45;1.98;;;1.88;;
15159;SDS011;7680;48.800;9.680;2023-03-14T14:13:22;2.00;;;1.90;;
15159;SDS011;7680;48.800;9.680;2023-03-14T14:15:57;1.80;;;1.70;;
15159;SDS011;7680;48.800;9.680;2023-03-14T14:18:35;1.92;;;1.60;;
15159;SDS011;7680;48.800;9.680;2023-03-14T14:21:08;2.05;;;1.95;;
15159;SDS011;7680;48.800;9.680;2023-03-14T14:23:43;1.70;;;1.60;;
15159;SDS011;7680;48.800;9.680;2023-03-14T14:26:18;1.98;;;1.77;;
15159;SDS011;7680;48.800;9.680;2023-03-14T14:28:59;2.15;;;1.65;;
15159;SDS011;7680;48.800;9.680;2023-03-14T14:31:35;2.13;;;1.88;;
15159;SDS011;7680;48.800;9.680;2023-03-14T14:34:17;2.65;;;1.48;;
15159;SDS011;7680;48.800;9.680;2023-03-14T14:36:51;1.70;;;1.60;;
15159;SDS011;7680;48.800;9.680;2023-03-14T14:39:26;2.17;;;1.90;;
15159;SDS011;7680;48.800;9.680;2023-03-14T14:42:02;2.22;;;1.70;;
15159;SDS011;7680;48.800;9.680;2023-03-14T14:44:36;2.22;;;1.80;;
15159;SDS011;7680;48.800;9.680;2023-03-14T14:47:12;1.70;;;1.60;;
15159;SDS011;7680;48.800;9.680;2023-03-14T14:49:46;2.30;;;1.63;;
15159;SDS011;7680;48.800;9.680;2023-03-14T14:52:21;4.15;;;2.20;;
15159;SDS011;7680;48.800;9.680;2023-03-14T14:55:12;1.73;;;1.63;;
15159;SDS011;7680;48.800;9.680;2023-03-14T14:57:50;1.75;;;1.65;;
15159;SDS011;7680;48.800;9.680;2023-03-14T15:00:28;2.35;;;1.80;;
15159;SDS011;7680;48.800;9.680;2023-03-14T15:03:01;2.40;;;2.20;;
15159;SDS011;7680;48.800;9.680;2023-03-14T15:05:36;2.55;;;2.22;;
15159;SDS011;7680;48.800;9.680;2023-03-14T15:08:11;2.17;;;1.90;;
15159;SDS011;7680;48.800;9.680;2023-03-14T15:10:45;4.00;;;2.97;;
15159;SDS011;7680;48.800;9.680;2023-03-14T15:13:18;1.92;;;1.83;;
15159;SDS011;7680;48.800;9.680;2023-03-14T15:15:52;2.83;;;1.98;;
15159;SDS011;7680;48.800;9.680;2023-03-14T15:18:28;2.88;;;1.83;;
15159;SDS011;7680;48.800;9.680;2023-03-14T15:21:02;2.55;;;1.85;;
15159;SDS011;7680;48.800;9.680;2023-03-14T15:23:35;4.67;;;2.17;;
15159;SDS011;7680;48.800;9.680;2023-03-14T15:26:10;2.35;;;1.90;;
15159;SDS011;7680;48.800;9.680;2023-03-14T15:28:46;3.20;;;2.10;;
15159;SDS011;7680;48.800;9.680;2023-03-14T15:31:21;3.50;;;2.03;;
15159;SDS011;7680;48.800;9.680;2023-03-14T15:33:55;3.30;;;1.80;;
15159;SDS011;7680;48.800;9.680;2023-03-14T15:36:28;4.53;;;1.77;;
15159;SDS011;7680;48.800;9.680;2023-03-14T15:39:03;3.72;;;1.70;;
15159;SDS011;7680;48.800;9.680;2023-03-14T15:41:38;2.97;;;2.00;;
15159;SDS011;7680;48.800;9.680;2023-03-14T15:44:11;4.33;;;2.40;;
15159;SDS011;7680;48.800;9.680;2023-03-14T15:46:46;3.50;;;1.80;;
15159;SDS011;7680;48.800;9.680;2023-03-14T15:49:19;3.50;;;2.20;;
15159;SDS011;7680;48.800;9.680;2023-03-14T15:51:52;2.60;;;1.87;;
15159;SDS011;7680;48.800;9.680;2023-03-14T15:54:28;2.33;;;1.90;;
15159;SDS011;7680;48.800;9.680;2023-03-14T15:57:01;3.58;;;2.00;;
15159;SDS011;7680;48.800;9.680;2023-03-14T15:59:34;4.25;;;1.90;;
15159;SDS011;7680;48.800;9.680;2023-03-14T16:02:09;3.33;;;2.17;;
15159;SDS011;7680;48.800;9.680;2023-03-14T16:04:42;4.13;;;2.10;;
15159;SDS011;7680;48.800;9.680;2023-03-14T16:07:15;2.22;;;2.00;;